createdAt,value
2022-12-03T00:00:59.671Z,30.10
2022-12-03T00:03:30.710Z,30.17
2022-12-03T00:05:59.044Z,31.23
2022-12-03T00:08:27.499Z,31.17
2022-12-03T00:10:55.769Z,29.95
2022-12-03T00:13:24.328Z,31.63
2022-12-03T00:15:52.605Z,30.77
2022-12-03T00:18:20.999Z,33.65
2022-12-03T00:20:50.650Z,33.47
2022-12-03T00:23:19.088Z,31.55
2022-12-03T00:25:47.458Z,30.55
2022-12-03T00:28:15.789Z,29.00
2022-12-03T00:30:44.009Z,33.05
2022-12-03T00:33:12.382Z,33.80
2022-12-03T00:35:40.540Z,33.42
2022-12-03T00:38:10.458Z,33.33
2022-12-03T00:40:38.801Z,31.83
2022-12-03T00:43:07.181Z,31.77
2022-12-03T00:45:35.284Z,32.70
2022-12-03T00:48:03.703Z,34.72
2022-12-03T00:50:31.887Z,36.28
2022-12-03T00:53:00.288Z,35.10
2022-12-03T00:55:29.735Z,35.20
2022-12-03T00:57:58.099Z,32.28
2022-12-03T01:00:26.442Z,33.22
2022-12-03T01:02:55.042Z,32.38
2022-12-03T01:05:23.459Z,31.95
2022-12-03T01:07:52.240Z,33.28
2022-12-03T01:10:20.618Z,31.05
2022-12-03T01:12:50.540Z,31.60
2022-12-03T01:15:19.162Z,31.35
2022-12-03T01:17:47.757Z,31.50
2022-12-03T01:20:15.927Z,33.50
2022-12-03T01:22:44.383Z,32.13
2022-12-03T01:25:12.443Z,30.75
2022-12-03T01:27:40.909Z,28.95
2022-12-03T01:30:13.688Z,32.00
2022-12-03T01:32:41.080Z,31.27
2022-12-03T01:35:09.788Z,31.23
2022-12-03T01:37:38.286Z,30.70
2022-12-03T01:40:08.509Z,32.65
2022-12-03T01:42:39.577Z,31.92
2022-12-03T01:45:13.047Z,31.10
2022-12-03T01:47:41.559Z,28.83
2022-12-03T01:50:16.364Z,28.20
2022-12-03T01:52:45.617Z,28.77
2022-12-03T01:55:15.686Z,29.45
2022-12-03T01:57:46.752Z,27.63
2022-12-03T02:00:18.297Z,29.38
2022-12-03T02:02:48.296Z,31.25
2022-12-03T02:05:19.352Z,28.80
2022-12-03T02:10:17.824Z,26.88
2022-12-03T02:12:49.327Z,27.42
2022-12-03T02:17:47.188Z,27.40
2022-12-03T02:20:15.512Z,28.83
2022-12-03T02:22:47.912Z,27.10
2022-12-03T02:25:19.799Z,28.30
2022-12-03T02:27:49.432Z,27.58
2022-12-03T02:30:19.522Z,27.95
2022-12-03T02:32:48.628Z,27.65
2022-12-03T02:35:18.724Z,27.55
2022-12-03T02:37:48.069Z,28.27
2022-12-03T02:40:21.030Z,26.77
2022-12-03T02:42:48.937Z,29.23
2022-12-03T02:45:20.794Z,27.48
2022-12-03T02:47:52.292Z,28.75
2022-12-03T02:50:23.527Z,29.45
2022-12-03T02:52:53.349Z,27.17
2022-12-03T02:55:23.365Z,26.90
2022-12-03T02:57:52.276Z,26.53
2022-12-03T03:00:23.119Z,27.80
2022-12-03T03:02:51.796Z,28.23
2022-12-03T03:05:22.248Z,27.30
2022-12-03T03:07:51.939Z,29.02
2022-12-03T03:10:24.237Z,29.35
2022-12-03T03:12:54.406Z,27.60
2022-12-03T03:15:23.459Z,28.33
2022-12-03T03:17:52.031Z,27.33
2022-12-03T03:20:20.527Z,27.50
2022-12-03T03:22:49.009Z,26.20
2022-12-03T03:25:19.076Z,25.75
2022-12-03T03:27:48.902Z,25.40
2022-12-03T03:30:17.503Z,23.77
2022-12-03T03:32:45.880Z,25.35
2022-12-03T03:35:14.952Z,26.08
2022-12-03T03:37:43.369Z,25.80
2022-12-03T03:40:12.329Z,25.45
2022-12-03T03:42:40.776Z,24.67
2022-12-03T03:45:11.127Z,24.88
2022-12-03T03:47:39.639Z,26.08
2022-12-03T03:50:09.829Z,25.45
2022-12-03T03:52:39.307Z,24.88
2022-12-03T03:55:08.541Z,24.05
2022-12-03T03:57:37.235Z,26.33
2022-12-03T04:00:06.922Z,26.17
2022-12-03T04:02:38.406Z,24.42
2022-12-03T04:07:35.943Z,25.05
2022-12-03T04:10:24.810Z,25.58
2022-12-03T04:12:58.240Z,24.20
2022-12-03T04:15:26.763Z,25.75
2022-12-03T04:18:14.739Z,26.35
2022-12-03T04:20:43.331Z,25.63
2022-12-03T04:23:10.855Z,26.20
2022-12-03T04:25:56.623Z,25.67
2022-12-03T04:28:42.295Z,24.33
2022-12-03T04:31:24.602Z,25.05
2022-12-03T04:34:12.118Z,26.02
2022-12-03T04:36:40.535Z,26.08
2022-12-03T04:39:09.144Z,28.65
2022-12-03T04:41:37.423Z,26.95
2022-12-03T04:44:23.231Z,25.17
2022-12-03T04:46:51.458Z,26.65
2022-12-03T04:49:21.210Z,26.38
2022-12-03T04:51:49.395Z,26.80
2022-12-03T04:54:17.740Z,26.33
2022-12-03T04:56:45.916Z,27.42
2022-12-03T04:59:16.461Z,26.08
2022-12-03T05:01:46.287Z,26.85
2022-12-03T05:04:15.516Z,27.55
2022-12-03T05:06:45.303Z,26.20
2022-12-03T05:09:13.911Z,28.55
2022-12-03T05:11:42.805Z,29.05
2022-12-03T05:14:12.017Z,27.92
2022-12-03T05:16:40.442Z,28.88
2022-12-03T05:19:09.960Z,27.58
2022-12-03T05:21:38.033Z,28.45
2022-12-03T05:24:08.384Z,28.17
2022-12-03T05:26:36.577Z,28.08
2022-12-03T05:29:05.211Z,29.13
2022-12-03T05:31:33.357Z,31.02
2022-12-03T05:34:01.764Z,32.00
2022-12-03T05:36:29.861Z,30.48
2022-12-03T05:38:58.292Z,30.70
2022-12-03T05:41:44.986Z,31.85
2022-12-03T05:44:16.235Z,30.40
2022-12-03T05:46:48.493Z,29.50
2022-12-03T05:49:17.096Z,32.13
2022-12-03T05:51:45.156Z,31.65
2022-12-03T05:54:13.568Z,30.80
2022-12-03T05:56:43.153Z,49.97
2022-12-03T05:59:11.519Z,30.70
2022-12-03T06:01:39.695Z,33.53
2022-12-03T06:04:08.156Z,29.77
2022-12-03T06:06:36.352Z,29.85
2022-12-03T06:09:05.170Z,31.15
2022-12-03T06:11:34.999Z,29.85
2022-12-03T06:14:04.981Z,32.45
2022-12-03T06:16:33.312Z,33.17
2022-12-03T06:19:01.688Z,31.75
2022-12-03T06:21:29.911Z,33.03
2022-12-03T06:23:58.262Z,29.60
2022-12-03T06:26:26.545Z,31.65
2022-12-03T06:28:54.973Z,32.28
2022-12-03T06:31:24.764Z,32.60
2022-12-03T06:33:53.277Z,32.63
2022-12-03T06:36:23.292Z,33.33
2022-12-03T06:38:51.962Z,33.13
2022-12-03T06:41:20.053Z,31.35
2022-12-03T06:43:48.526Z,44.58
2022-12-03T06:46:16.841Z,33.38
2022-12-03T06:48:46.655Z,32.90
2022-12-03T06:51:14.674Z,31.55
2022-12-03T06:53:43.176Z,33.05
2022-12-03T06:56:11.351Z,31.25
2022-12-03T06:58:39.953Z,34.78
2022-12-03T07:01:08.082Z,33.35
2022-12-03T07:03:36.501Z,32.22
2022-12-03T07:06:06.273Z,36.97
2022-12-03T07:08:34.636Z,33.47
2022-12-03T07:11:02.851Z,33.75
2022-12-03T07:13:31.176Z,34.72
2022-12-03T07:15:59.591Z,37.22
2022-12-03T07:18:27.989Z,35.28
2022-12-03T07:20:56.178Z,32.95
2022-12-03T07:23:25.873Z,33.10
2022-12-03T07:25:53.972Z,34.50
2022-12-03T07:28:22.313Z,34.75
2022-12-03T07:30:50.460Z,34.28
2022-12-03T07:33:18.869Z,33.80
2022-12-03T07:35:46.892Z,36.22
2022-12-03T07:38:15.378Z,32.83
2022-12-03T07:40:45.212Z,34.22
2022-12-03T07:43:13.617Z,34.85
2022-12-03T07:45:41.866Z,35.25
2022-12-03T07:48:10.414Z,31.25
2022-12-03T07:50:38.539Z,35.33
2022-12-03T07:53:07.014Z,32.42
2022-12-03T07:55:35.180Z,33.22
2022-12-03T07:58:04.902Z,35.35
2022-12-03T08:00:32.998Z,33.53
2022-12-03T08:03:01.385Z,35.30
2022-12-03T08:05:29.929Z,35.13
2022-12-03T08:07:58.405Z,38.08
2022-12-03T08:10:27.188Z,36.45
2022-12-03T08:12:57.630Z,35.00
2022-12-03T08:15:32.366Z,35.85
2022-12-03T08:18:14.179Z,34.25
2022-12-03T08:20:43.936Z,36.25
2022-12-03T08:23:14.884Z,36.30
2022-12-03T08:25:43.738Z,35.72
2022-12-03T08:28:16.734Z,40.90
2022-12-03T08:30:48.819Z,38.97
2022-12-03T08:33:22.284Z,42.92
2022-12-03T08:35:52.075Z,38.95
2022-12-03T08:38:23.041Z,34.70
2022-12-03T08:40:52.955Z,37.53
2022-12-03T08:43:22.994Z,36.92
2022-12-03T08:45:52.851Z,35.75
2022-12-03T08:48:28.189Z,34.00
2022-12-03T08:50:57.849Z,38.97
2022-12-03T08:53:30.109Z,37.85
2022-12-03T08:56:00.394Z,35.95
2022-12-03T08:58:38.710Z,37.75
2022-12-03T09:01:30.390Z,35.17
2022-12-03T09:04:06.950Z,34.92
2022-12-03T09:06:35.032Z,36.35
2022-12-03T09:09:06.744Z,34.90
2022-12-03T09:11:35.226Z,34.80
2022-12-03T09:14:03.673Z,46.03
2022-12-03T09:16:33.726Z,35.13
2022-12-03T09:19:02.138Z,38.47
2022-12-03T09:21:30.225Z,39.53
2022-12-03T09:23:58.645Z,37.92
2022-12-03T09:26:27.260Z,36.50
2022-12-03T09:28:55.698Z,36.15
2022-12-03T09:31:24.118Z,36.33
2022-12-03T09:33:53.795Z,36.80
2022-12-03T09:36:22.189Z,38.38
2022-12-03T09:38:50.657Z,38.28
2022-12-03T09:41:18.833Z,38.30
2022-12-03T09:44:03.969Z,37.78
2022-12-03T09:46:33.116Z,39.63
2022-12-03T09:49:03.807Z,36.60
2022-12-03T09:51:34.385Z,38.35
2022-12-03T09:54:03.189Z,40.47
2022-12-03T09:56:31.357Z,40.90
2022-12-03T09:58:59.710Z,36.42
2022-12-03T10:01:30.286Z,36.10
2022-12-03T10:06:30.505Z,33.60
2022-12-03T10:09:00.147Z,35.90
2022-12-03T10:11:28.772Z,35.28
2022-12-03T10:13:58.171Z,35.92
2022-12-03T10:16:26.587Z,38.85
2022-12-03T10:18:57.052Z,40.00
2022-12-03T10:21:31.314Z,42.63
2022-12-03T10:24:20.806Z,41.97
2022-12-03T10:26:52.029Z,40.83
2022-12-03T10:29:22.699Z,41.42
2022-12-03T10:31:59.023Z,41.92
2022-12-03T10:34:31.570Z,43.42
2022-12-03T10:37:11.595Z,40.25
2022-12-03T10:39:58.979Z,67.45
2022-12-03T10:42:28.181Z,41.45
2022-12-03T10:45:13.933Z,42.20
2022-12-03T10:47:42.347Z,67.38
2022-12-03T10:50:18.295Z,41.83
2022-12-03T10:52:46.941Z,66.43
2022-12-03T10:55:17.490Z,45.22
2022-12-03T10:57:46.402Z,43.28
2022-12-03T11:00:17.673Z,45.20
2022-12-03T11:02:46.782Z,46.55
2022-12-03T11:05:27.535Z,46.85
2022-12-03T11:07:55.821Z,45.80
2022-12-03T11:10:25.979Z,50.13
2022-12-03T11:13:28.760Z,49.50
2022-12-03T11:15:58.168Z,53.13
2022-12-03T11:18:58.902Z,53.22
2022-12-03T11:21:27.518Z,111.40
2022-12-03T11:24:20.748Z,56.42
2022-12-03T11:27:19.036Z,52.58
2022-12-03T11:29:54.990Z,50.30
2022-12-03T11:33:00.048Z,46.45
2022-12-03T11:35:29.140Z,43.47
2022-12-03T11:38:35.998Z,46.83
2022-12-03T11:41:11.505Z,46.35
2022-12-03T11:44:01.524Z,47.60
2022-12-03T11:46:31.165Z,49.38
2022-12-03T11:49:00.600Z,47.63
2022-12-03T11:51:29.870Z,49.50
2022-12-03T11:54:00.153Z,50.47
2022-12-03T11:56:29.518Z,46.92
2022-12-03T11:59:01.493Z,51.90
2022-12-03T12:01:38.828Z,53.53
2022-12-03T12:04:08.166Z,49.17
2022-12-03T12:06:42.665Z,51.80
2022-12-03T12:09:11.319Z,54.75
2022-12-03T12:11:41.555Z,47.45
2022-12-03T12:14:12.806Z,45.85
2022-12-03T12:16:51.474Z,48.08
2022-12-03T12:19:34.287Z,43.45
2022-12-03T12:22:17.746Z,49.85
2022-12-03T12:24:51.634Z,50.10
2022-12-03T12:27:21.935Z,51.45
2022-12-03T12:29:56.605Z,51.45
2022-12-03T12:32:27.568Z,49.05
2022-12-03T12:34:58.447Z,49.22
2022-12-03T12:37:33.009Z,48.13
2022-12-03T12:40:02.783Z,53.15
2022-12-03T12:42:35.699Z,55.22
2022-12-03T12:45:15.934Z,53.50
2022-12-03T12:47:50.980Z,48.47
2022-12-03T12:50:20.312Z,50.40
2022-12-03T12:52:51.280Z,56.35
2022-12-03T12:57:48.273Z,49.30
2022-12-03T13:00:23.677Z,52.20
2022-12-03T13:02:53.323Z,50.25
2022-12-03T13:05:22.082Z,45.75
2022-12-03T13:07:50.554Z,56.92
2022-12-03T13:10:32.735Z,56.22
2022-12-03T13:13:02.570Z,49.13
2022-12-03T13:15:40.332Z,49.28
2022-12-03T13:18:23.222Z,48.85
2022-12-03T13:20:51.655Z,45.72
2022-12-03T13:23:35.181Z,56.80
2022-12-03T13:26:19.385Z,50.42
2022-12-03T13:28:55.244Z,46.00
2022-12-03T13:31:27.527Z,55.65
2022-12-03T13:33:56.794Z,47.50
2022-12-03T13:36:31.644Z,50.13
2022-12-03T13:38:59.782Z,53.90
2022-12-03T13:41:46.971Z,58.38
2022-12-03T13:44:17.735Z,49.67
2022-12-03T13:46:48.503Z,53.00
2022-12-03T13:49:20.299Z,48.97
2022-12-03T13:51:49.145Z,51.67
2022-12-03T13:54:21.675Z,46.58
2022-12-03T13:56:50.760Z,50.58
2022-12-03T13:59:24.421Z,49.13
2022-12-03T14:01:54.523Z,49.78
2022-12-03T14:04:22.658Z,48.67
2022-12-03T14:06:51.031Z,56.78
2022-12-03T14:09:19.195Z,50.88
2022-12-03T14:12:07.460Z,53.50
2022-12-03T14:14:35.488Z,48.55
2022-12-03T14:17:05.678Z,51.13
2022-12-03T14:19:33.792Z,54.35
2022-12-03T14:22:02.669Z,58.45
2022-12-03T14:24:30.674Z,55.97
2022-12-03T14:26:59.052Z,53.45
2022-12-03T14:29:27.320Z,55.35
2022-12-03T14:31:56.006Z,59.22
2022-12-03T14:34:25.624Z,53.53
2022-12-03T14:36:54.085Z,48.55
2022-12-03T14:39:22.451Z,53.28
2022-12-03T14:42:08.447Z,59.75
2022-12-03T14:44:36.649Z,50.83
2022-12-03T14:47:05.287Z,56.17
2022-12-03T14:49:35.189Z,58.33
2022-12-03T14:52:03.742Z,55.75
2022-12-03T14:54:33.147Z,54.65
2022-12-03T14:57:01.616Z,50.20
2022-12-03T14:59:29.886Z,54.33
2022-12-03T15:02:00.980Z,52.30
2022-12-03T15:04:29.311Z,53.92
2022-12-03T15:06:59.013Z,56.35
2022-12-03T15:09:27.346Z,63.53
2022-12-03T15:11:55.693Z,54.35
2022-12-03T15:14:23.853Z,55.00
2022-12-03T15:16:52.315Z,50.90
2022-12-03T15:19:20.443Z,58.17
2022-12-03T15:21:49.020Z,53.25
2022-12-03T15:24:18.469Z,54.67
2022-12-03T15:26:46.944Z,48.92
2022-12-03T15:29:15.014Z,55.55
2022-12-03T15:31:43.457Z,53.95
2022-12-03T15:34:11.522Z,54.17
2022-12-03T15:36:40.105Z,59.80
2022-12-03T15:39:08.132Z,55.67
2022-12-03T15:41:37.926Z,52.85
2022-12-03T15:44:06.120Z,53.28
2022-12-03T15:46:34.597Z,51.58
2022-12-03T15:49:02.665Z,53.92
2022-12-03T15:51:31.048Z,56.20
2022-12-03T15:53:59.183Z,51.03
2022-12-03T15:56:27.586Z,56.45
2022-12-03T15:58:57.183Z,50.25
2022-12-03T16:01:25.895Z,48.85
2022-12-03T16:03:54.005Z,49.13
2022-12-03T16:06:22.454Z,59.25
2022-12-03T16:08:50.500Z,49.80
2022-12-03T16:11:18.799Z,54.75
2022-12-03T16:13:46.903Z,51.05
2022-12-03T16:16:16.697Z,48.33
2022-12-03T16:18:44.887Z,51.97
2022-12-03T16:21:13.184Z,50.45
2022-12-03T16:23:41.772Z,50.30
2022-12-03T16:26:10.117Z,47.60
2022-12-03T16:28:38.171Z,47.42
2022-12-03T16:31:06.851Z,47.00
2022-12-03T16:33:36.475Z,49.22
2022-12-03T16:36:05.131Z,47.67
2022-12-03T16:38:33.792Z,50.25
2022-12-03T16:41:02.395Z,49.03
2022-12-03T16:43:30.565Z,49.60
2022-12-03T16:46:12.924Z,48.92
2022-12-03T16:48:42.401Z,47.58
2022-12-03T16:51:10.907Z,50.92
2022-12-03T16:53:39.551Z,49.67
2022-12-03T16:56:08.024Z,49.05
2022-12-03T16:58:36.176Z,51.45
2022-12-03T17:01:04.656Z,50.17
2022-12-03T17:03:34.200Z,49.83
2022-12-03T17:06:04.671Z,48.60
2022-12-03T17:08:32.935Z,48.40
2022-12-03T17:11:01.334Z,49.88
2022-12-03T17:13:29.442Z,47.75
2022-12-03T17:15:57.874Z,50.08
2022-12-03T17:18:27.117Z,49.17
2022-12-03T17:20:55.463Z,54.25
2022-12-03T17:23:25.000Z,46.38
2022-12-03T17:25:53.347Z,59.22
2022-12-03T17:28:21.406Z,52.50
2022-12-03T17:30:49.941Z,53.55
2022-12-03T17:33:18.116Z,54.55
2022-12-03T17:35:46.848Z,50.53
2022-12-03T17:38:15.022Z,50.50
2022-12-03T17:40:44.792Z,50.85
2022-12-03T17:43:12.868Z,53.00
2022-12-03T17:45:41.871Z,63.15
2022-12-03T17:48:10.180Z,65.47
2022-12-03T17:50:38.814Z,55.30
2022-12-03T17:53:10.337Z,46.75
2022-12-03T17:55:44.535Z,52.90
2022-12-03T17:58:14.947Z,47.22
2022-12-03T18:00:43.719Z,49.60
2022-12-03T18:03:11.853Z,53.03
2022-12-03T18:05:40.265Z,56.28
2022-12-03T18:08:08.489Z,55.83
2022-12-03T18:10:36.937Z,67.47
2022-12-03T18:13:05.081Z,56.67
2022-12-03T18:15:34.852Z,57.15
2022-12-03T18:18:02.960Z,57.22
2022-12-03T18:20:31.491Z,46.65
2022-12-03T18:23:00.306Z,43.53
2022-12-03T18:25:29.710Z,42.13
2022-12-03T18:27:58.195Z,44.28
2022-12-03T18:30:26.750Z,44.55
2022-12-03T18:32:56.457Z,46.00
2022-12-03T18:35:25.021Z,44.10
2022-12-03T18:37:53.138Z,41.83
2022-12-03T18:40:24.297Z,45.13
2022-12-03T18:42:52.453Z,41.92
2022-12-03T18:45:21.116Z,42.75
2022-12-03T18:47:49.375Z,41.50
2022-12-03T18:50:19.358Z,39.55
2022-12-03T18:52:47.457Z,45.53
2022-12-03T18:55:19.240Z,44.33
2022-12-03T18:57:47.421Z,46.85
2022-12-03T19:00:16.685Z,46.05
2022-12-03T19:05:36.184Z,46.03
2022-12-03T19:08:12.592Z,44.20
2022-12-03T19:10:42.287Z,41.83
2022-12-03T19:13:10.626Z,47.20
2022-12-03T19:15:39.051Z,38.63
2022-12-03T19:18:07.653Z,42.00
2022-12-03T19:20:41.178Z,42.70
2022-12-03T19:23:10.117Z,41.60
2022-12-03T19:25:38.631Z,39.00
2022-12-03T19:28:06.897Z,39.47
2022-12-03T19:30:35.430Z,36.42
2022-12-03T19:33:03.583Z,39.00
2022-12-03T19:35:32.745Z,38.25
2022-12-03T19:38:02.616Z,38.78
2022-12-03T19:40:32.191Z,38.60
2022-12-03T19:43:00.512Z,39.38
2022-12-03T19:45:28.977Z,40.17
2022-12-03T19:47:57.194Z,38.63
2022-12-03T19:50:25.780Z,39.10
2022-12-03T19:52:54.029Z,38.97
2022-12-03T19:55:24.038Z,39.22
2022-12-03T19:57:52.432Z,38.03
2022-12-03T20:00:21.240Z,40.05
2022-12-03T20:02:50.720Z,39.63
2022-12-03T20:05:19.321Z,43.05
2022-12-03T20:07:47.746Z,42.40
2022-12-03T20:10:16.488Z,40.17
2022-12-03T20:12:46.099Z,40.13
2022-12-03T20:15:14.961Z,41.35
2022-12-03T20:17:43.192Z,42.78
2022-12-03T20:20:12.286Z,42.10
2022-12-03T20:22:40.536Z,41.20
2022-12-03T20:25:09.621Z,41.13
2022-12-03T20:27:39.976Z,40.65
2022-12-03T20:30:11.428Z,40.90
2022-12-03T20:32:45.068Z,42.00
2022-12-03T20:35:13.821Z,43.28
2022-12-03T20:37:42.078Z,47.88
2022-12-03T20:40:11.394Z,48.30
2022-12-03T20:42:39.480Z,50.78
2022-12-03T20:45:10.644Z,47.92
2022-12-03T20:47:38.794Z,46.90
2022-12-03T20:50:08.503Z,47.45
2022-12-03T20:52:36.702Z,44.17
2022-12-03T20:55:05.680Z,44.47
2022-12-03T20:57:33.823Z,42.22
2022-12-03T21:00:02.280Z,41.70
2022-12-03T21:02:31.820Z,40.25
2022-12-03T21:05:00.392Z,41.03
2022-12-03T21:07:29.195Z,39.17
2022-12-03T21:09:57.804Z,39.88
2022-12-03T21:12:26.189Z,40.25
2022-12-03T21:14:54.798Z,40.95
2022-12-03T21:17:23.004Z,41.40
2022-12-03T21:19:53.313Z,37.83
2022-12-03T21:22:21.507Z,35.58
2022-12-03T21:24:49.951Z,40.95
2022-12-03T21:27:21.642Z,36.88
2022-12-03T21:29:50.559Z,40.20
2022-12-03T21:32:18.747Z,40.30
2022-12-03T21:34:47.301Z,39.40
2022-12-03T21:37:16.730Z,38.35
2022-12-03T21:39:45.301Z,38.03
2022-12-03T21:42:34.312Z,39.05
2022-12-03T21:45:01.972Z,42.08
2022-12-03T21:47:36.701Z,38.95
2022-12-03T21:50:07.160Z,37.40
2022-12-03T21:52:37.161Z,40.95
2022-12-03T21:55:06.408Z,41.33
2022-12-03T21:57:36.394Z,41.30
2022-12-03T22:00:06.097Z,38.47
2022-12-03T22:02:34.568Z,39.88
2022-12-03T22:05:03.154Z,43.03
2022-12-03T22:07:33.916Z,41.65
2022-12-03T22:10:04.228Z,38.15
2022-12-03T22:12:32.652Z,41.28
2022-12-03T22:15:00.996Z,38.20
2022-12-03T22:17:29.149Z,44.05
2022-12-03T22:19:57.680Z,41.70
2022-12-03T22:22:26.846Z,39.63
2022-12-03T22:24:55.264Z,40.95
2022-12-03T22:27:25.183Z,41.70
2022-12-03T22:29:53.996Z,41.13
2022-12-03T22:32:22.236Z,42.13
2022-12-03T22:34:50.769Z,40.83
2022-12-03T22:37:18.893Z,38.70
2022-12-03T22:39:47.333Z,40.42
2022-12-03T22:42:15.494Z,41.63
2022-12-03T22:44:45.311Z,42.35
2022-12-03T22:47:13.418Z,43.70
2022-12-03T22:49:41.819Z,46.20
2022-12-03T22:52:12.916Z,44.88
2022-12-03T22:54:41.218Z,44.63
2022-12-03T22:57:09.395Z,45.42
2022-12-03T22:59:37.842Z,42.40
2022-12-03T23:02:07.400Z,39.78
2022-12-03T23:04:36.085Z,41.60
2022-12-03T23:07:04.163Z,40.67
2022-12-03T23:09:32.492Z,41.08
2022-12-03T23:12:00.687Z,42.95
2022-12-03T23:14:29.457Z,39.88
2022-12-03T23:16:57.547Z,39.50
2022-12-03T23:19:27.238Z,42.28
2022-12-03T23:21:55.324Z,38.42
2022-12-03T23:24:23.628Z,38.83
2022-12-03T23:26:51.876Z,43.13
2022-12-03T23:29:20.371Z,37.95
2022-12-03T23:31:48.532Z,38.90
2022-12-03T23:34:17.018Z,38.65
2022-12-03T23:36:46.645Z,38.58
2022-12-03T23:39:15.040Z,38.10
2022-12-03T23:41:43.184Z,37.55
2022-12-03T23:44:11.711Z,39.00
2022-12-03T23:46:40.304Z,42.00
2022-12-03T23:49:09.064Z,39.85
2022-12-03T23:51:37.217Z,40.30
2022-12-03T23:54:07.311Z,40.92
2022-12-03T23:56:35.420Z,37.17
2022-12-03T23:59:03.768Z,38.90
